createdAt,value
2017-09-10T00:01:05.685Z,997.99
2017-09-10T00:02:14.973Z,997.97
2017-09-10T00:03:23.945Z,997.99
2017-09-10T00:04:32.618Z,997.96
2017-09-10T00:05:41.933Z,998.01
2017-09-10T00:06:51.528Z,998
2017-09-10T00:08:00.838Z,998.04
2017-09-10T00:09:09.803Z,998.05
2017-09-10T00:10:18.773Z,998.07
2017-09-10T00:11:27.421Z,998.07
2017-09-10T00:12:36.709Z,998.08
2017-09-10T00:13:46.001Z,998.08
2017-09-10T00:14:55.298Z,998.04
2017-09-10T00:16:04.269Z,998.06
2017-09-10T00:17:13.240Z,997.99
2017-09-10T00:18:22.519Z,998.02
2017-09-10T00:19:31.484Z,997.99
2017-09-10T00:20:41.088Z,997.99
2017-09-10T00:21:49.746Z,997.98
2017-09-10T00:22:58.408Z,998.01
2017-09-10T00:24:08.007Z,998.01
2017-09-10T00:25:17.301Z,997.99
2017-09-10T00:26:25.975Z,998
2017-09-10T00:27:34.932Z,998
2017-09-10T00:28:44.253Z,998.03
2017-09-10T00:29:53.552Z,998.04
2017-09-10T00:31:02.523Z,998.04
2017-09-10T00:32:11.194Z,998.06
2017-09-10T00:33:20.162Z,998.08
2017-09-10T00:34:29.134Z,998.08
2017-09-10T00:35:38.423Z,998.08
2017-09-10T00:36:47.402Z,998.07
2017-09-10T00:37:56.680Z,998.04
2017-09-10T00:39:05.954Z,998.01
2017-09-10T00:40:14.604Z,998.06
2017-09-10T00:41:23.885Z,998.04
2017-09-10T00:42:32.917Z,998.04
2017-09-10T00:43:41.893Z,998
2017-09-10T00:44:50.859Z,998.03
2017-09-10T00:45:59.517Z,998.04
2017-09-10T00:47:08.805Z,998.02
2017-09-10T00:48:18.106Z,998.04
2017-09-10T00:49:27.085Z,998.04
2017-09-10T00:50:36.688Z,998.09
2017-09-10T00:51:45.672Z,998.11
2017-09-10T00:52:55.271Z,998.11
2017-09-10T00:54:04.232Z,998.13
2017-09-10T00:55:13.827Z,998.17
2017-09-10T00:56:23.111Z,998.16
2017-09-10T00:57:32.393Z,998.19
2017-09-10T00:58:41.058Z,998.17
2017-09-10T00:59:50.028Z,998.2
2017-09-10T01:00:58.996Z,998.19
2017-09-10T01:02:07.983Z,998.19
2017-09-10T01:03:17.276Z,998.18
2017-09-10T01:04:26.566Z,998.17
2017-09-10T01:05:36.174Z,998.18
2017-09-10T01:06:45.471Z,998.18
2017-09-10T01:07:54.760Z,998.23
2017-09-10T01:09:03.733Z,998.22
2017-09-10T01:10:12.719Z,998.24
2017-09-10T01:11:21.689Z,998.25
2017-09-10T01:12:30.658Z,998.24
2017-09-10T01:13:39.677Z,998.23
2017-09-10T01:14:48.654Z,998.28
2017-09-10T01:15:57.953Z,998.27
2017-09-10T01:17:06.607Z,998.3
2017-09-10T01:18:15.585Z,998.34
2017-09-10T01:19:24.552Z,998.32
2017-09-10T01:20:33.518Z,998.34
2017-09-10T01:21:42.799Z,998.32
2017-09-10T01:22:51.458Z,998.36
2017-09-10T01:24:00.424Z,998.37
2017-09-10T01:25:09.723Z,998.37
2017-09-10T01:26:19.010Z,998.42
2017-09-10T01:27:28.291Z,998.42
2017-09-10T01:28:37.587Z,998.43
2017-09-10T01:29:47.194Z,998.42
2017-09-10T01:30:56.474Z,998.45
2017-09-10T01:32:05.133Z,998.49
2017-09-10T01:33:14.140Z,998.46
2017-09-10T01:34:23.100Z,998.47
2017-09-10T01:35:32.389Z,998.49
2017-09-10T01:36:41.367Z,998.52
2017-09-10T01:37:50.337Z,998.5
2017-09-10T01:38:59.630Z,998.53
2017-09-10T01:40:08.304Z,998.5
2017-09-10T01:41:17.591Z,998.53
2017-09-10T01:42:26.569Z,998.52
2017-09-10T01:43:35.264Z,998.55
2017-09-10T01:44:43.925Z,998.55
2017-09-10T01:45:53.216Z,998.55
2017-09-10T01:47:02.182Z,998.52
2017-09-10T01:48:11.152Z,998.49
2017-09-10T01:49:20.117Z,998.52
2017-09-10T01:50:29.090Z,998.52
2017-09-10T01:51:37.746Z,998.55
2017-09-10T01:52:47.033Z,998.53
2017-09-10T01:53:55.677Z,998.61
2017-09-10T01:55:05.286Z,998.61
2017-09-10T01:56:14.569Z,998.63
2017-09-10T01:57:24.484Z,998.69
2017-09-10T01:58:33.774Z,998.69
2017-09-10T01:59:43.053Z,998.66
2017-09-10T02:00:52.177Z,998.7
2017-09-10T02:02:01.462Z,998.77
2017-09-10T02:03:10.439Z,998.77
2017-09-10T02:04:19.102Z,998.78
2017-09-10T02:05:28.069Z,998.71
2017-09-10T02:06:37.420Z,998.75
2017-09-10T02:07:46.394Z,998.8
2017-09-10T02:08:55.676Z,998.8
2017-09-10T02:10:04.696Z,998.81
2017-09-10T02:11:13.357Z,998.84
2017-09-10T02:12:22.341Z,998.85
2017-09-10T02:13:30.993Z,998.87
2017-09-10T02:14:40.266Z,998.89
2017-09-10T02:15:49.237Z,998.93
2017-09-10T02:16:57.890Z,998.94
2017-09-10T02:18:06.855Z,998.9
2017-09-10T02:19:15.842Z,998.93
2017-09-10T02:20:25.130Z,998.95
2017-09-10T02:21:34.103Z,998.94
2017-09-10T02:22:43.070Z,998.92
2017-09-10T02:23:52.381Z,998.94
2017-09-10T02:25:01.036Z,998.91
2017-09-10T02:26:10.022Z,998.94
2017-09-10T02:27:19.310Z,998.93
2017-09-10T02:28:28.282Z,998.92
2017-09-10T02:29:37.264Z,998.91
2017-09-10T02:30:46.541Z,998.94
2017-09-10T02:31:55.526Z,998.94
2017-09-10T02:33:04.812Z,998.96
2017-09-10T02:34:14.431Z,998.97
2017-09-10T02:35:23.412Z,998.99
2017-09-10T02:36:32.379Z,999.02
2017-09-10T02:37:42.008Z,998.98
2017-09-10T02:38:51.615Z,998.99
2017-09-10T02:40:00.578Z,998.99
2017-09-10T02:41:09.563Z,999.02
2017-09-10T02:42:18.212Z,999
2017-09-10T02:43:27.174Z,998.99
2017-09-10T02:44:35.839Z,999.03
2017-09-10T02:45:44.802Z,999.01
2017-09-10T02:46:53.783Z,999.01
2017-09-10T02:48:02.445Z,999.01
2017-09-10T02:49:11.731Z,999.01
2017-09-10T02:50:20.714Z,999.03
2017-09-10T02:51:29.990Z,999.02
2017-09-10T02:52:38.966Z,999.08
2017-09-10T02:53:48.564Z,999.08
2017-09-10T02:54:57.854Z,999.1
2017-09-10T02:56:06.539Z,999.13
2017-09-10T02:57:16.230Z,999.18
2017-09-10T02:58:25.199Z,999.18
2017-09-10T02:59:34.170Z,999.19
2017-09-10T03:00:42.825Z,999.18
2017-09-10T03:01:52.426Z,999.18
2017-09-10T03:03:02.017Z,999.16
2017-09-10T03:04:11.043Z,999.22
2017-09-10T03:05:20.675Z,999.23
2017-09-10T03:06:30.295Z,999.28
2017-09-10T03:07:39.272Z,999.26
2017-09-10T03:08:48.566Z,999.29
2017-09-10T03:09:57.530Z,999.3
2017-09-10T03:11:06.496Z,999.29
2017-09-10T03:12:15.463Z,999.32
2017-09-10T03:13:24.438Z,999.36
2017-09-10T03:14:33.088Z,999.33
2017-09-10T03:15:42.370Z,999.33
2017-09-10T03:16:51.344Z,999.34
2017-09-10T03:18:00.312Z,999.33
2017-09-10T03:19:09.923Z,999.38
2017-09-10T03:20:18.894Z,999.36
2017-09-10T03:21:27.885Z,999.36
2017-09-10T03:22:36.535Z,999.41
2017-09-10T03:23:45.511Z,999.43
2017-09-10T03:24:54.787Z,999.4
2017-09-10T03:26:04.079Z,999.43
2017-09-10T03:27:13.363Z,999.45
2017-09-10T03:28:22.326Z,999.46
2017-09-10T03:29:30.981Z,999.46
2017-09-10T03:30:39.946Z,999.48
2017-09-10T03:31:49.238Z,999.49
2017-09-10T03:32:58.534Z,999.46
2017-09-10T03:34:07.830Z,999.43
2017-09-10T03:35:17.432Z,999.46
2017-09-10T03:36:26.724Z,999.48
2017-09-10T03:37:35.392Z,999.45
2017-09-10T03:38:44.685Z,999.49
2017-09-10T03:39:53.351Z,999.47
2017-09-10T03:41:02.386Z,999.43
2017-09-10T03:42:11.047Z,999.5
2017-09-10T03:43:20.343Z,999.47
2017-09-10T03:44:29.327Z,999.47
2017-09-10T03:45:38.305Z,999.5
2017-09-10T03:46:47.276Z,999.51
2017-09-10T03:47:55.936Z,999.53
2017-09-10T03:49:05.217Z,999.58
2017-09-10T03:50:13.869Z,999.57
2017-09-10T03:51:22.843Z,999.56
2017-09-10T03:52:32.137Z,999.54
2017-09-10T03:53:40.785Z,999.6
2017-09-10T03:54:49.442Z,999.59
2017-09-10T03:55:58.733Z,999.6
2017-09-10T03:57:08.342Z,999.65
2017-09-10T03:58:17.302Z,999.65
2017-09-10T03:59:25.972Z,999.66
2017-09-10T04:00:35.254Z,999.62
2017-09-10T04:01:44.229Z,999.6
2017-09-10T04:02:53.208Z,999.6
2017-09-10T04:04:02.808Z,999.62
2017-09-10T04:05:12.410Z,999.63
2017-09-10T04:06:21.066Z,999.64
2017-09-10T04:07:30.673Z,999.66
2017-09-10T04:08:39.650Z,999.69
2017-09-10T04:09:48.620Z,999.68
2017-09-10T04:10:57.281Z,999.68
2017-09-10T04:12:06.876Z,999.69
2017-09-10T04:13:15.526Z,999.68
2017-09-10T04:14:24.176Z,999.72
2017-09-10T04:15:33.465Z,999.65
2017-09-10T04:16:42.119Z,999.67
2017-09-10T04:17:50.782Z,999.69
2017-09-10T04:19:00.106Z,999.65
2017-09-10T04:20:09.394Z,999.66
2017-09-10T04:21:18.388Z,999.64
2017-09-10T04:22:27.997Z,999.66
2017-09-10T04:23:36.972Z,999.66
2017-09-10T04:24:45.628Z,999.67
2017-09-10T04:25:54.281Z,999.66
2017-09-10T04:27:03.893Z,999.65
2017-09-10T04:28:12.545Z,999.62
2017-09-10T04:29:21.824Z,999.61
2017-09-10T04:30:31.100Z,999.62
2017-09-10T04:31:40.393Z,999.66
2017-09-10T04:32:49.671Z,999.61
2017-09-10T04:33:58.640Z,999.64
2017-09-10T04:35:07.602Z,999.64
2017-09-10T04:36:16.579Z,999.63
2017-09-10T04:37:25.233Z,999.71
2017-09-10T04:38:34.839Z,999.74
2017-09-10T04:39:43.825Z,999.74
2017-09-10T04:40:53.429Z,999.76
2017-09-10T04:42:02.083Z,999.78
2017-09-10T04:43:11.056Z,999.82
2017-09-10T04:44:19.706Z,999.8
2017-09-10T04:45:28.377Z,999.81
2017-09-10T04:46:37.029Z,999.82
2017-09-10T04:47:46.628Z,999.83
2017-09-10T04:48:55.289Z,999.81
2017-09-10T04:50:03.938Z,999.8
2017-09-10T04:51:12.904Z,999.79
2017-09-10T04:52:21.872Z,999.83
2017-09-10T04:53:31.146Z,999.83
2017-09-10T04:54:40.420Z,999.83
2017-09-10T04:55:49.066Z,999.85
2017-09-10T04:56:58.042Z,999.86
2017-09-10T04:58:07.329Z,999.88
2017-09-10T04:59:16.294Z,999.9
2017-09-10T05:00:25.586Z,999.88
2017-09-10T05:01:34.564Z,999.94
2017-09-10T05:02:43.850Z,999.98
2017-09-10T05:03:52.505Z,999.99
2017-09-10T05:05:01.468Z,1000.03
2017-09-10T05:06:10.790Z,1000.01
2017-09-10T05:07:20.068Z,1000.08
2017-09-10T05:08:28.720Z,1000.06
2017-09-10T05:09:37.761Z,1000.07
2017-09-10T05:10:46.732Z,1000.11
2017-09-10T05:11:55.706Z,1000.11
2017-09-10T05:13:04.685Z,1000.12
2017-09-10T05:14:13.334Z,1000.11
2017-09-10T05:15:22.306Z,1000.11
2017-09-10T05:16:31.896Z,1000.11
2017-09-10T05:17:40.561Z,1000.13
2017-09-10T05:18:49.204Z,1000.16
2017-09-10T05:19:58.482Z,1000.14
2017-09-10T05:21:07.771Z,1000.16
2017-09-10T05:22:17.681Z,1000.18
2017-09-10T05:23:26.648Z,1000.18
2017-09-10T05:24:35.950Z,1000.19
2017-09-10T05:25:44.925Z,1000.21
2017-09-10T05:26:53.916Z,1000.22
2017-09-10T05:28:02.570Z,1000.24
2017-09-10T05:29:11.224Z,1000.26
2017-09-10T05:30:20.519Z,1000.26
2017-09-10T05:31:29.821Z,1000.28
2017-09-10T05:32:38.484Z,1000.26
2017-09-10T05:33:47.455Z,1000.29
2017-09-10T05:34:56.743Z,1000.34
2017-09-10T05:36:05.396Z,1000.29
2017-09-10T05:37:14.694Z,1000.28
2017-09-10T05:38:23.664Z,1000.27
2017-09-10T05:39:32.645Z,1000.28
2017-09-10T05:40:41.935Z,1000.27
2017-09-10T05:41:51.205Z,1000.28
2017-09-10T05:42:59.951Z,1000.32
2017-09-10T05:44:09.558Z,1000.3
2017-09-10T05:45:18.225Z,1000.35
2017-09-10T05:46:27.207Z,1000.36
2017-09-10T05:47:36.488Z,1000.37
2017-09-10T05:48:45.775Z,1000.41
2017-09-10T05:49:54.753Z,1000.39
2017-09-10T05:51:04.677Z,1000.4
2017-09-10T05:52:13.328Z,1000.39
2017-09-10T05:53:22.610Z,1000.4
2017-09-10T05:54:31.928Z,1000.43
2017-09-10T05:55:40.901Z,1000.39
2017-09-10T05:56:50.295Z,1000.43
2017-09-10T05:57:59.329Z,1000.43
2017-09-10T05:59:08.293Z,1000.48
2017-09-10T06:00:17.567Z,1000.46
2017-09-10T06:01:26.212Z,1000.51
2017-09-10T06:02:35.827Z,1000.55
2017-09-10T06:03:44.566Z,1000.54
2017-09-10T06:04:54.173Z,1000.58
2017-09-10T06:06:04.122Z,1000.59
2017-09-10T06:07:12.930Z,1000.6
2017-09-10T06:08:22.360Z,1000.62
2017-09-10T06:09:31.152Z,1000.63
2017-09-10T06:10:40.145Z,1000.67
2017-09-10T06:11:48.794Z,1000.63
2017-09-10T06:12:58.101Z,1000.66
2017-09-10T06:14:07.380Z,1000.72
2017-09-10T06:15:16.985Z,1000.73
2017-09-10T06:16:25.999Z,1000.72
2017-09-10T06:17:35.996Z,1000.75
2017-09-10T06:18:44.886Z,1000.72
2017-09-10T06:19:53.544Z,1000.7
2017-09-10T06:21:02.830Z,1000.69
2017-09-10T06:22:12.113Z,1000.76
2017-09-10T06:23:20.789Z,1000.73
2017-09-10T06:24:30.068Z,1000.71
2017-09-10T06:25:38.719Z,1000.74
2017-09-10T06:26:47.694Z,1000.74
2017-09-10T06:27:56.660Z,1000.75
2017-09-10T06:29:05.640Z,1000.78
2017-09-10T06:30:14.616Z,1000.8
2017-09-10T06:31:23.586Z,1000.79
2017-09-10T06:32:32.553Z,1000.79
2017-09-10T06:33:41.828Z,1000.75
2017-09-10T06:34:50.827Z,1000.79
2017-09-10T06:35:59.483Z,1000.79
2017-09-10T06:37:08.796Z,1000.8
2017-09-10T06:38:17.449Z,1000.83
2017-09-10T06:39:26.429Z,1000.81
2017-09-10T06:40:35.401Z,1000.8
2017-09-10T06:41:44.366Z,1000.81
2017-09-10T06:42:53.662Z,1000.82
2017-09-10T06:44:02.635Z,1000.85
2017-09-10T06:45:11.924Z,1000.86
2017-09-10T06:46:20.898Z,1000.91
2017-09-10T06:47:29.887Z,1000.9
2017-09-10T06:48:38.538Z,1000.9
2017-09-10T06:49:47.829Z,1000.86
2017-09-10T06:50:56.793Z,1000.83
2017-09-10T06:52:06.075Z,1000.84
2017-09-10T06:53:15.995Z,1000.84
2017-09-10T06:54:24.642Z,1000.79
2017-09-10T06:55:33.621Z,1000.84
2017-09-10T06:56:42.916Z,1000.75
2017-09-10T06:57:51.934Z,1000.74
2017-09-10T06:59:00.593Z,1000.76
2017-09-10T07:00:09.889Z,1000.78
2017-09-10T07:01:18.617Z,1000.76
2017-09-10T07:02:27.267Z,1000.8
2017-09-10T07:03:36.869Z,1000.81
2017-09-10T07:04:46.160Z,1000.8
2017-09-10T07:05:55.126Z,1000.78
2017-09-10T07:07:03.780Z,1000.82
2017-09-10T07:08:13.087Z,1000.84
2017-09-10T07:09:22.710Z,1000.8
2017-09-10T07:10:31.992Z,1000.83
2017-09-10T07:11:40.660Z,1000.82
2017-09-10T07:12:49.627Z,1000.79
2017-09-10T07:13:58.598Z,1000.81
2017-09-10T07:15:07.279Z,1000.78
2017-09-10T07:16:16.259Z,1000.73
2017-09-10T07:17:25.939Z,1000.72
2017-09-10T07:18:34.933Z,1000.7
2017-09-10T07:19:43.947Z,1000.67
2017-09-10T07:20:53.564Z,1000.72
2017-09-10T07:22:02.930Z,1000.72
2017-09-10T07:23:12.214Z,1000.7
2017-09-10T07:24:20.897Z,1000.68
2017-09-10T07:25:30.181Z,1000.71
2017-09-10T07:26:39.158Z,1000.68
2017-09-10T07:27:48.160Z,1000.62
2017-09-10T07:28:57.150Z,1000.66
2017-09-10T07:30:05.814Z,1000.73
2017-09-10T07:31:14.805Z,1000.74
2017-09-10T07:32:23.476Z,1000.74
2017-09-10T07:33:32.752Z,1000.77
2017-09-10T07:34:42.028Z,1000.77
2017-09-10T07:35:51.019Z,1000.79
2017-09-10T07:36:59.985Z,1000.81
2017-09-10T07:38:09.587Z,1000.86
2017-09-10T07:39:18.252Z,1000.81
2017-09-10T07:40:26.926Z,1000.86
2017-09-10T07:41:36.213Z,1000.83
2017-09-10T07:42:45.178Z,1000.84
2017-09-10T07:43:54.139Z,1000.88
2017-09-10T07:45:03.458Z,1000.86
2017-09-10T07:46:12.431Z,1000.84
2017-09-10T07:47:21.100Z,1000.86
2017-09-10T07:48:30.700Z,1000.81
2017-09-10T07:49:39.667Z,1000.82
2017-09-10T07:50:48.653Z,1000.89
2017-09-10T07:51:57.639Z,1000.84
2017-09-10T07:53:06.294Z,1000.88
2017-09-10T07:54:15.594Z,1000.91
2017-09-10T07:55:24.873Z,1000.92
2017-09-10T07:56:33.843Z,1000.91
2017-09-10T07:57:42.505Z,1000.91
2017-09-10T07:58:51.488Z,1000.92
2017-09-10T08:00:00.468Z,1000.91
2017-09-10T08:01:09.749Z,1000.92
2017-09-10T08:02:18.411Z,1000.95
2017-09-10T08:03:27.124Z,1000.93
2017-09-10T08:04:36.092Z,1000.93
2017-09-10T08:05:45.055Z,1000.93
2017-09-10T08:06:54.386Z,1000.91
2017-09-10T08:08:03.352Z,1000.91
2017-09-10T08:09:12.645Z,1000.92
2017-09-10T08:10:21.924Z,1000.86
2017-09-10T08:11:31.201Z,1000.84
2017-09-10T08:12:40.495Z,1000.9
2017-09-10T08:13:49.186Z,1000.93
2017-09-10T08:14:57.847Z,1000.92
2017-09-10T08:16:07.138Z,1000.91
2017-09-10T08:17:16.121Z,1000.84
2017-09-10T08:18:24.775Z,1000.83
2017-09-10T08:19:34.067Z,1000.83
2017-09-10T08:20:43.035Z,1000.83
2017-09-10T08:21:52.003Z,1000.79
2017-09-10T08:23:01.295Z,1000.82
2017-09-10T08:24:10.256Z,1000.77
2017-09-10T08:25:18.918Z,1000.81
2017-09-10T08:26:28.287Z,1000.79
2017-09-10T08:27:37.347Z,1000.75
2017-09-10T08:28:46.670Z,1000.77
2017-09-10T08:29:55.646Z,1000.77
2017-09-10T08:31:04.310Z,1000.75
2017-09-10T08:32:13.313Z,1000.76
2017-09-10T08:33:22.605Z,1000.75
2017-09-10T08:34:31.642Z,1000.79
2017-09-10T08:35:40.314Z,1000.8
2017-09-10T08:36:49.601Z,1000.81
2017-09-10T08:37:58.912Z,1000.8
2017-09-10T08:39:08.216Z,1000.82
2017-09-10T08:40:17.811Z,1000.76
2017-09-10T08:41:26.785Z,1000.77
2017-09-10T08:42:35.765Z,1000.76
2017-09-10T08:43:45.063Z,1000.81
2017-09-10T08:44:54.042Z,1000.81
2017-09-10T08:46:03.330Z,1000.78
2017-09-10T08:47:12.612Z,1000.79
2017-09-10T08:48:21.915Z,1000.74
2017-09-10T08:49:30.902Z,1000.75
2017-09-10T08:50:39.873Z,1000.76
2017-09-10T08:51:48.852Z,1000.71
2017-09-10T08:52:58.774Z,1000.75
2017-09-10T08:54:07.424Z,1000.81
2017-09-10T08:55:16.741Z,1000.79
2017-09-10T08:56:26.039Z,1000.82
2017-09-10T08:57:34.692Z,1000.79
2017-09-10T08:58:43.967Z,1000.81
2017-09-10T08:59:52.955Z,1000.79
2017-09-10T09:01:01.939Z,1000.85
2017-09-10T09:02:11.556Z,1000.87
2017-09-10T09:03:20.639Z,1000.89
2017-09-10T09:04:29.649Z,1000.87
2017-09-10T09:05:38.354Z,1000.83
2017-09-10T09:06:47.660Z,1000.87
2017-09-10T09:07:56.953Z,1000.89
2017-09-10T09:09:05.955Z,1000.88
2017-09-10T09:10:15.994Z,1000.93
2017-09-10T09:11:24.965Z,1000.96
2017-09-10T09:12:33.938Z,1000.9
2017-09-10T09:13:43.231Z,1000.91
2017-09-10T09:14:52.205Z,1000.92
2017-09-10T09:16:01.515Z,1000.93
2017-09-10T09:17:10.529Z,1000.93
2017-09-10T09:18:19.502Z,1000.91
2017-09-10T09:19:28.798Z,1000.92
2017-09-10T09:20:37.791Z,1000.9
2017-09-10T09:21:47.072Z,1000.89
2017-09-10T09:22:56.468Z,1000.86
2017-09-10T09:24:05.138Z,1000.87
2017-09-10T09:25:14.118Z,1000.88
2017-09-10T09:26:23.616Z,1000.86
2017-09-10T09:27:32.932Z,1000.87
2017-09-10T09:28:42.276Z,1000.89
2017-09-10T09:29:51.598Z,1000.87
2017-09-10T09:31:00.587Z,1000.89
2017-09-10T09:32:09.906Z,1000.83
2017-09-10T09:33:20.132Z,1000.84
2017-09-10T09:34:29.559Z,1000.87
2017-09-10T09:35:38.222Z,1000.84
2017-09-10T09:36:48.054Z,1000.86
2017-09-10T09:37:57.251Z,1000.87
2017-09-10T09:39:05.898Z,1000.84
2017-09-10T09:42:47.217Z,1000.83
2017-09-10T09:43:56.907Z,1000.83
2017-09-10T09:45:05.893Z,1000.89
2017-09-10T09:46:14.565Z,1000.85
2017-09-10T09:47:23.546Z,1000.83
2017-09-10T09:48:32.845Z,1000.82
2017-09-10T09:49:41.863Z,1000.82
2017-09-10T09:50:50.837Z,1000.78
2017-09-10T09:52:00.129Z,1000.76
2017-09-10T09:53:09.740Z,1000.76
2017-09-10T09:54:19.605Z,1000.73
2017-09-10T09:55:28.583Z,1000.81
2017-09-10T09:56:38.593Z,1000.78
2017-09-10T09:57:47.892Z,1000.86
2017-09-10T09:58:57.016Z,1000.87
2017-09-10T10:00:06.086Z,1000.83
2017-09-10T10:01:14.743Z,1000.83
2017-09-10T10:02:24.030Z,1000.84
2017-09-10T10:03:33.125Z,1000.84
2017-09-10T10:04:42.534Z,1000.79
2017-09-10T10:05:51.522Z,1000.73
2017-09-10T10:07:00.930Z,1000.79
2017-09-10T10:08:09.649Z,1000.75
2017-09-10T10:09:18.651Z,1000.77
2017-09-10T10:10:27.670Z,1000.76
2017-09-10T10:11:36.955Z,1000.75
2017-09-10T10:12:46.581Z,1000.76
2017-09-10T10:13:55.577Z,1000.77
2017-09-10T10:15:04.873Z,1000.73
2017-09-10T10:16:14.154Z,1000.81
2017-09-10T10:17:22.814Z,1000.74
2017-09-10T10:18:31.498Z,1000.72
2017-09-10T10:19:40.489Z,1000.71
2017-09-10T10:20:49.454Z,1000.63
2017-09-10T10:21:59.057Z,1000.64
2017-09-10T10:23:08.052Z,1000.71
2017-09-10T10:24:17.014Z,1000.64
2017-09-10T10:25:25.987Z,1000.67
2017-09-10T10:26:34.642Z,1000.63
2017-09-10T10:27:43.309Z,1000.66
2017-09-10T10:28:52.293Z,1000.67
2017-09-10T10:30:01.266Z,1000.62
2017-09-10T10:31:10.585Z,1000.64
2017-09-10T10:32:19.939Z,1000.67
2017-09-10T10:33:28.905Z,1000.67
2017-09-10T10:34:37.866Z,1000.66
2017-09-10T10:35:46.536Z,1000.63
2017-09-10T10:36:55.186Z,1000.63
2017-09-10T10:38:04.473Z,1000.65
2017-09-10T10:39:13.142Z,1000.64
2017-09-10T10:40:22.438Z,1000.65
2017-09-10T10:41:31.096Z,1000.65
2017-09-10T10:42:39.766Z,1000.63
2017-09-10T10:43:49.378Z,1000.64
2017-09-10T10:44:58.041Z,1000.67
2017-09-10T10:46:07.003Z,1000.63
2017-09-10T10:47:16.300Z,1000.6
2017-09-10T10:48:25.906Z,1000.59
2017-09-10T10:49:34.883Z,1000.6
2017-09-10T10:50:43.541Z,1000.62
2017-09-10T10:51:52.533Z,1000.65
2017-09-10T10:53:01.501Z,1000.63
2017-09-10T10:54:10.828Z,1000.64
2017-09-10T10:55:19.796Z,1000.59
2017-09-10T10:56:29.085Z,1000.61
2017-09-10T10:57:39.160Z,1000.64
2017-09-10T10:58:48.438Z,1000.62
2017-09-10T10:59:57.418Z,1000.63
2017-09-10T11:01:06.389Z,1000.64
2017-09-10T11:02:15.042Z,1000.58
2017-09-10T11:03:24.022Z,1000.64
2017-09-10T11:04:32.994Z,1000.66
2017-09-10T11:05:41.978Z,1000.63
2017-09-10T11:06:50.954Z,1000.64
2017-09-10T11:07:59.606Z,1000.64
2017-09-10T11:09:08.905Z,1000.64
2017-09-10T11:10:18.205Z,1000.73
2017-09-10T11:11:27.497Z,1000.68
2017-09-10T11:12:36.470Z,1000.67
2017-09-10T11:13:45.438Z,1000.66
2017-09-10T11:14:54.113Z,1000.68
2017-09-10T11:16:02.796Z,1000.67
2017-09-10T11:17:11.442Z,1000.69
2017-09-10T11:18:20.405Z,1000.68
2017-09-10T11:19:29.695Z,1000.66
2017-09-10T11:20:38.976Z,1000.66
2017-09-10T11:21:47.945Z,1000.68
2017-09-10T11:22:57.226Z,1000.69
2017-09-10T11:24:06.213Z,1000.68
2017-09-10T11:25:15.527Z,1000.61
2017-09-10T11:26:24.525Z,1000.6
2017-09-10T11:27:33.502Z,1000.53
2017-09-10T11:28:42.169Z,1000.54
2017-09-10T11:29:50.835Z,1000.54
2017-09-10T11:31:00.757Z,1000.52
2017-09-10T11:32:09.748Z,1000.54
2017-09-10T11:33:19.345Z,1000.49
2017-09-10T11:34:28.956Z,1000.49
2017-09-10T11:37:20.724Z,1000.46
2017-09-10T11:38:29.374Z,1000.44
2017-09-10T11:39:38.992Z,1000.43
2017-09-10T11:40:47.951Z,1000.41
2017-09-10T11:41:56.921Z,1000.4
2017-09-10T11:43:05.576Z,1000.37
2017-09-10T11:44:14.543Z,1000.37
2017-09-10T11:45:23.197Z,1000.34
2017-09-10T11:46:32.804Z,1000.33
2017-09-10T11:47:42.418Z,1000.39
2017-09-10T11:48:51.066Z,1000.37
2017-09-10T11:50:00.042Z,1000.33
2017-09-10T11:51:09.962Z,1000.31
2017-09-10T11:52:18.630Z,1000.35
2017-09-10T11:53:27.600Z,1000.35
2017-09-10T11:54:37.180Z,1000.34
2017-09-10T11:55:46.465Z,1000.31
2017-09-10T11:56:55.435Z,1000.33
2017-09-10T11:58:04.429Z,1000.29
2017-09-10T11:59:13.711Z,1000.3
2017-09-10T12:00:22.681Z,1000.26
2017-09-10T12:01:31.656Z,1000.26
2017-09-10T12:02:40.614Z,1000.29
2017-09-10T12:03:50.208Z,1000.34
2017-09-10T12:04:58.985Z,1000.32
2017-09-10T12:06:07.971Z,1000.32
2017-09-10T12:07:16.951Z,1000.28
2017-09-10T12:08:25.941Z,1000.31
2017-09-10T12:09:35.599Z,1000.26
2017-09-10T12:10:44.578Z,1000.26
2017-09-10T12:11:54.216Z,1000.21
2017-09-10T12:13:03.187Z,1000.24
2017-09-10T12:14:12.163Z,1000.22
2017-09-10T12:15:20.835Z,1000.26
2017-09-10T12:16:29.809Z,1000.22
2017-09-10T12:17:39.084Z,1000.2
2017-09-10T12:18:48.077Z,1000.14
2017-09-10T12:19:57.399Z,1000.15
2017-09-10T12:21:06.381Z,1000.17
2017-09-10T12:22:15.661Z,1000.11
2017-09-10T12:23:25.280Z,1000.08
2017-09-10T12:24:34.902Z,1000.04
2017-09-10T12:25:44.196Z,1000.05
2017-09-10T12:26:52.840Z,1000.07
2017-09-10T12:28:01.825Z,1000
2017-09-10T12:29:10.798Z,1000.07
2017-09-10T12:30:19.445Z,1000.04
2017-09-10T12:31:28.110Z,1000.01
2017-09-10T12:32:37.389Z,1000.03
2017-09-10T12:33:46.056Z,1000.07
2017-09-10T12:34:55.020Z,1000.06
2017-09-10T12:36:03.985Z,1000.03
2017-09-10T12:37:13.592Z,1000.04
2017-09-10T12:38:22.558Z,999.98
2017-09-10T12:39:31.215Z,1000.02
2017-09-10T12:40:40.191Z,1000.12
2017-09-10T12:41:49.481Z,1000.01
2017-09-10T12:42:58.449Z,1000.05
2017-09-10T12:44:07.414Z,1000.06
2017-09-10T12:45:16.372Z,1000.04
2017-09-10T12:46:25.972Z,1000.02
2017-09-10T12:47:35.260Z,1000.03
2017-09-10T12:48:43.925Z,1000.03
2017-09-10T12:49:53.245Z,1000.07
2017-09-10T12:51:02.526Z,1000.08
2017-09-10T12:52:11.802Z,1000.04
2017-09-10T12:53:20.766Z,1000
2017-09-10T12:54:29.751Z,1000.02
2017-09-10T12:55:39.035Z,999.95
2017-09-10T12:56:48.663Z,999.95
2017-09-10T12:57:57.318Z,999.98
2017-09-10T12:59:06.621Z,999.99
2017-09-10T13:00:15.284Z,1000.03
2017-09-10T13:01:23.946Z,1000.06
2017-09-10T13:02:32.633Z,1000.06
2017-09-10T13:03:41.607Z,1000.07
2017-09-10T13:04:50.604Z,1000.05
2017-09-10T13:05:59.879Z,1000.04
2017-09-10T13:07:09.168Z,1000.07
2017-09-10T13:08:18.462Z,1000.06
2017-09-10T13:09:27.427Z,1000.04
2017-09-10T13:10:36.707Z,1000.01
2017-09-10T13:11:45.386Z,1000.05
2017-09-10T13:12:54.656Z,1000
2017-09-10T13:14:03.956Z,999.96
2017-09-10T13:15:13.229Z,999.95
2017-09-10T13:16:21.923Z,999.93
2017-09-10T13:17:30.922Z,999.87
2017-09-10T13:18:39.574Z,999.9
2017-09-10T13:19:48.545Z,999.92
2017-09-10T13:20:58.147Z,999.87
2017-09-10T13:22:07.789Z,999.84
2017-09-10T13:23:16.758Z,999.88
2017-09-10T13:24:26.054Z,999.78
2017-09-10T13:25:35.331Z,999.78
2017-09-10T13:26:44.296Z,999.74
2017-09-10T13:27:52.956Z,999.76
2017-09-10T13:29:01.943Z,999.75
2017-09-10T13:30:11.563Z,999.76
2017-09-10T13:31:20.525Z,999.78
2017-09-10T13:32:29.488Z,999.82
2017-09-10T13:33:38.801Z,999.77
2017-09-10T13:34:47.454Z,999.76
2017-09-10T13:35:56.738Z,999.79
2017-09-10T13:37:05.403Z,999.76
2017-09-10T13:38:14.382Z,999.72
2017-09-10T13:39:23.051Z,999.76
2017-09-10T13:40:31.710Z,999.75
2017-09-10T13:41:40.703Z,999.73
2017-09-10T13:42:49.984Z,999.64
2017-09-10T13:43:58.954Z,999.67
2017-09-10T13:45:07.913Z,999.68
2017-09-10T13:46:17.215Z,999.67
2017-09-10T13:47:25.893Z,999.6
2017-09-10T13:48:34.545Z,999.68
2017-09-10T13:49:43.834Z,999.71
2017-09-10T13:50:52.815Z,999.7
2017-09-10T13:52:01.778Z,999.68
2017-09-10T13:53:10.740Z,999.75
2017-09-10T13:54:19.717Z,999.7
2017-09-10T13:55:28.991Z,999.69
2017-09-10T13:56:38.005Z,999.65
2017-09-10T13:57:46.978Z,999.6
2017-09-10T13:58:55.994Z,999.61
2017-09-10T14:00:04.653Z,999.55
2017-09-10T14:01:13.296Z,999.52
2017-09-10T14:02:22.258Z,999.54
2017-09-10T14:03:31.278Z,999.51
2017-09-10T14:04:40.257Z,999.47
2017-09-10T14:05:49.229Z,999.42
2017-09-10T14:06:58.197Z,999.35
2017-09-10T14:08:07.824Z,999.42
2017-09-10T14:09:16.795Z,999.42
2017-09-10T14:10:25.749Z,999.4
2017-09-10T14:11:35.360Z,999.41
2017-09-10T14:12:44.358Z,999.43
2017-09-10T14:13:53.951Z,999.39